Euro Snow — VQGH9 — position and weather

sailwx.info

Track history (hours):
 
Tides and Currents Weather Stations Pressure Air Temp Water Temp Dewpoint Dewpoint Depression Visibility Wind Speed Wind Dir Waves Ship Positions

Euro Snow

Last reported at 2016-Feb-10 23:33 UTC. Time now 2016-Feb-11 00:30 UTC.
Position N 51°59' E 004°02'.

Length 133 m; draft 6.2 m.

Type: Cargo ship. MMSI: 235613000.

Date/timePositionNaut miles runAvg speedWind from/ knotsBaromVisibWave heightAir tempDewpointWater temp
2016-Feb-10 23:33N 51°59' E 004°02'0 0.0
2016-Feb-10 22:31N 51°59' E 004°02'0 0.0
2016-Feb-10 21:34N 51°59' E 004°02'4 3.6
2016-Feb-10 20:34N 51°60' E 003°56'6 5.9
2016-Feb-10 19:29N 51°56' E 003°48'0 0.0
2016-Feb-10 18:32N 51°56' E 003°48'0 0.0
2016-Feb-10 17:32N 51°56' E 003°48'0 0.0
2016-Feb-10 16:32N 51°56' E 003°48'0 0.0
2016-Feb-10 15:29N 51°56' E 003°48'0 0.0
2016-Feb-10 14:32N 51°56' E 003°48'0 0.1
2016-Feb-10 13:32N 51°56' E 003°48'0 0.0
2016-Feb-10 12:32N 51°56' E 003°48'0 0.0
2016-Feb-10 10:26N 51°56' E 003°48'0 0.1
2016-Feb-10 09:26N 51°56' E 003°48'0 0.1
2016-Feb-10 08:29N 51°56' E 003°48'0 0.1
2016-Feb-10 07:32N 51°56' E 003°48'0 0.0
2016-Feb-10 06:32N 51°56' E 003°48'0 0.0
2016-Feb-10 05:32N 51°56' E 003°48'0 0.0
2016-Feb-10 04:32N 51°56' E 003°48'0 0.0
2016-Feb-10 03:32N 51°56' E 003°48'0 0.0
2016-Feb-10 02:33N 51°56' E 003°48'0 0.0
2016-Feb-10 01:33N 51°56' E 003°48'0 0.1
2016-Feb-10 00:34N 51°56' E 003°48'1 1.2
2016-Feb-09 23:34N 51°58' E 003°47'1212.1
2016-Feb-09 22:33N 52°10' E 003°47'1514.9
2016-Feb-09 21:33N 52°24' E 003°49'1615.7
2016-Feb-09 20:33N 52°40' E 003°55'1515.5
2016-Feb-09 19:33N 52°55' E 004°00'1413.8
2016-Feb-09 18:33N 53°05' E 004°15'3213.6
2016-Feb-09 16:11N 53°30' E 004°49'1015.2
2016-Feb-09 15:33N 53°34' E 005°04'1616.3
2016-Feb-09 14:33N 53°39' E 005°30'1616.0
2016-Feb-09 13:33N 53°44' E 005°56'1515.3
2016-Feb-09 12:33N 53°49' E 006°20'1414.5
2016-Feb-09 11:33N 53°53' E 006°44'1313.5
2016-Feb-09 10:34N 53°56' E 007°06'1212.2
2016-Feb-09 09:33N 53°59' E 007°26'1211.7
2016-Feb-09 08:33N 54°01' E 007°46'1212.3
2016-Feb-09 07:33N 54°00' E 008°07'1212.2
2016-Feb-09 06:33N 53°59' E 008°27'1616.0
2016-Feb-09 05:33N 53°50' E 008°51'1111.1
2016-Feb-09 04:33N 53°54' E 009°09'1 0.8
2016-Feb-09 03:33N 53°54' E 009°10'6 6.1
2016-Feb-09 02:33N 53°59' E 009°16'13 5.8
2016-Feb-09 00:22N 54°10' E 009°26'7 8.0
2016-Feb-08 23:30N 54°14' E 009°36'7 7.0
2016-Feb-08 22:33N 54°19' E 009°43'7 7.4
2016-Feb-08 21:33N 54°21' E 009°55'7 7.4
2016-Feb-08 20:33N 54°22' E 010°08'1 0.6
2016-Feb-08 19:33N 54°22' E 010°09'1010.2
2016-Feb-08 18:34N 54°30' E 010°19'1514.5
2016-Feb-08 17:33N 54°38' E 010°40'1414.1
2016-Feb-08 16:33N 54°50' E 010°52'1313.5
2016-Feb-08 15:34N 55°03' E 011°02'1313.0
2016-Feb-08 14:33N 55°16' E 011°04'4713.5
2016-Feb-08 11:03N 55°58' E 010°29'714.5
2016-Feb-08 10:33N 56°04' E 010°22'7 6.3
2016-Feb-08 09:32N 56°09' E 010°14'0 0.0
2016-Feb-08 08:31N 56°09' E 010°14'0 0.0
2016-Feb-08 07:33N 56°09' E 010°14'0 0.0
2016-Feb-08 06:32N 56°09' E 010°14'0 0.0
2016-Feb-08 05:32N 56°09' E 010°14'0 0.0
2016-Feb-08 04:31N 56°09' E 010°14'0 0.0
2016-Feb-08 03:32N 56°09' E 010°14'0 0.0
2016-Feb-08 02:31N 56°09' E 010°14'0 0.0
2016-Feb-08 01:31N 56°09' E 010°14'0 0.0
2016-Feb-08 00:31N 56°09' E 010°14'0 0.0
2016-Feb-07 23:31N 56°09' E 010°14'0 0.0
2016-Feb-07 22:31N 56°09' E 010°14'0 0.0
2016-Feb-07 21:34N 56°09' E 010°14'5 4.6
2016-Feb-07 20:33N 56°08' E 010°22'4212.8
2016-Feb-07 17:15N 56°29' E 011°28'1014.7
2016-Feb-07 16:33N 56°36' E 011°40'1313.3
2016-Feb-07 15:33N 56°49' E 011°49'1515.3
2016-Feb-07 14:34N 57°03' E 011°41'1514.8
2016-Feb-07 13:33N 57°18' E 011°38'1414.5
2016-Feb-07 12:33N 57°33' E 011°38'1111.0
2016-Feb-07 11:33N 57°41' E 011°51'0 0.1
2016-Feb-07 10:32N 57°41' E 011°51'0 0.0
2016-Feb-07 09:32N 57°41' E 011°51'0 0.0
2016-Feb-07 08:32N 57°41' E 011°51'0 0.0
2016-Feb-07 07:32N 57°41' E 011°51'0 0.0
2016-Feb-07 06:31N 57°41' E 011°51'0 0.0
2016-Feb-07 05:33N 57°41' E 011°51'0 0.0
2016-Feb-07 04:33N 57°41' E 011°51'0 0.0
2016-Feb-07 03:33N 57°41' E 011°51'0 0.0
2016-Feb-07 02:31N 57°41' E 011°51'0 0.0
2016-Feb-07 01:32N 57°41' E 011°51'0 0.0
2016-Feb-07 00:32N 57°41' E 011°51'0 0.0
2016-Feb-06 23:33N 57°41' E 011°51'0 0.0
2016-Feb-06 22:32N 57°41' E 011°51'0 0.0
2016-Feb-06 21:32N 57°41' E 011°51'0 0.0
2016-Feb-06 20:32N 57°41' E 011°51'0 0.0
2016-Feb-06 19:32N 57°41' E 011°51'0 0.0
2016-Feb-06 18:31N 57°41' E 011°51'3 3.4
2016-Feb-06 17:33N 57°40' E 011°46'1313.4
2016-Feb-06 16:33N 57°39' E 011°21'1616.2
2016-Feb-06 15:33N 57°45' E 010°53'1716.5
2016-Feb-06 14:33N 57°44' E 010°22'38716.6
2016-Feb-05 15:14N 54°56' W 000°08'1116.9
2016-Feb-05 14:33N 54°51' W 000°26'1717.0
2016-Feb-05 13:33N 54°44' W 000°52'1212.4
2016-Feb-05 12:33N 54°36' W 001°09'0 0.0
2016-Feb-05 11:33N 54°36' W 001°09'0 0.0
2016-Feb-05 10:10N 54°36' W 001°09'0 0.0
2016-Feb-05 08:30N 54°36' W 001°09'0 0.0
2016-Feb-05 06:29N 54°36' W 001°09'0 0.0
2016-Feb-05 05:29N 54°36' W 001°09'0 0.0
2016-Feb-05 04:29N 54°36' W 001°09'0 0.0
2016-Feb-05 03:32N 54°36' W 001°09'0 0.0
2016-Feb-05 02:26N 54°36' W 001°09'0 0.0
2016-Feb-05 01:29N 54°36' W 001°09'5 5.4
2016-Feb-05 00:33N 54°41' W 001°07'5 5.2
2016-Feb-04 23:33N 54°46' W 001°04'1 1.3
2016-Feb-04 22:33N 54°45' W 001°02'4 4.2
2016-Feb-04 21:33N 54°41' W 001°02'5 5.2
2016-Feb-04 20:31N 54°38' W 000°55'7 7.5
2016-Feb-04 19:32N 54°35' W 000°43'7 7.5
2016-Feb-04 18:33N 54°32' W 000°31'9 9.0
2016-Feb-04 17:34N 54°26' W 000°20'1616.0
2016-Feb-04 16:33N 54°14' W 000°02'1515.4
2016-Feb-04 15:33N 54°02' E 000°15'1514.5
2016-Feb-04 14:33N 53°51' E 000°32'1613.8
2016-Feb-04 13:21N 53°39' E 000°49'1113.2
2016-Feb-04 12:31N 53°29' E 000°60'1414.2
2016-Feb-04 11:34N 53°18' E 001°12'1615.5
2016-Feb-04 10:33N 53°05' E 001°25'1616.3
2016-Feb-04 09:33N 52°52' E 001°42'1615.5
2016-Feb-04 08:33N 52°38' E 001°55'1616.3
2016-Feb-04 07:33N 52°22' E 001°48'1615.8
2016-Feb-04 06:33N 52°07' E 001°42'1414.3
2016-Feb-04 05:33N 51°56' E 001°27'6 5.6
2016-Feb-04 04:33N 51°57' E 001°18'0 0.0
2016-Feb-04 03:33N 51°57' E 001°18'0 0.0
2016-Feb-04 02:32N 51°57' E 001°18'0 0.0
2016-Feb-04 01:32N 51°57' E 001°18'0 0.0
2016-Feb-04 00:32N 51°57' E 001°18'0 0.0
2016-Feb-03 23:32N 51°57' E 001°18'0 0.0
2016-Feb-03 22:32N 51°57' E 001°18'0 0.0
2016-Feb-03 21:33N 51°57' E 001°18'0 0.0
2016-Feb-03 20:33N 51°57' E 001°18'0 0.0
2016-Feb-03 19:33N 51°57' E 001°18'0 0.0
2016-Feb-03 18:32N 51°57' E 001°18'0 0.0
2016-Feb-03 17:33N 51°57' E 001°18'0 0.0
2016-Feb-03 16:33N 51°57' E 001°18'0 0.0
2016-Feb-03 15:33N 51°57' E 001°18'0 0.0
2016-Feb-03 14:33N 51°57' E 001°18'0 0.0
2016-Feb-03 13:33N 51°57' E 001°18'6 6.3
2016-Feb-03 12:33N 51°56' E 001°28'1312.8
2016-Feb-03 11:34N 51°50' E 001°47'1616.2
2016-Feb-03 10:33N 51°34' E 001°48'1717.0
2016-Feb-03 09:33N 51°18' E 001°40'1514.8
2016-Feb-03 08:33N 51°03' E 001°36'1716.8
2016-Feb-03 07:31N 50°48' E 001°22'70214.6
2016-Feb-01 07:33N 41°58' W 009°44'1515.4
2016-Feb-01 06:33N 41°43' W 009°45'1515.3
2016-Feb-01 05:33N 41°27' W 009°44'1514.7
2016-Feb-01 04:31N 41°12' W 009°44'1515.3
2016-Feb-01 03:30N 40°57' W 009°44'1515.4
2016-Feb-01 02:31N 40°41' W 009°44'1414.2
2016-Feb-01 01:33N 40°28' W 009°43'1514.9
2016-Feb-01 00:33N 40°13' W 009°42'1414.2
2016-Jan-31 23:33N 39°59' W 009°43'  
Track history (hours):
 
Tides and Currents Weather Stations Pressure Air Temp Water Temp Dewpoint Dewpoint Depression Visibility Wind Speed Wind Dir Waves Ship Positions

Euro Snow

Last reported at 2016-Feb-10 23:33 UTC. Time now 2016-Feb-11 00:30 UTC.
Position N 51°59' E 004°02'.

Length 133 m; draft 6.2 m.

Type: Cargo ship. MMSI: 235613000.

Date/timePositionNaut miles runAvg speedWind from/ knotsBaromVisibWave heightAir tempDewpointWater temp
2016-Feb-10 23:33N 51°59' E 004°02'0 0.0
2016-Feb-10 22:31N 51°59' E 004°02'0 0.0
2016-Feb-10 21:34N 51°59' E 004°02'4 3.6
2016-Feb-10 20:34N 51°60' E 003°56'6 5.9
2016-Feb-10 19:29N 51°56' E 003°48'0 0.0
2016-Feb-10 18:32N 51°56' E 003°48'0 0.0
2016-Feb-10 17:32N 51°56' E 003°48'0 0.0
2016-Feb-10 16:32N 51°56' E 003°48'0 0.0
2016-Feb-10 15:29N 51°56' E 003°48'0 0.0
2016-Feb-10 14:32N 51°56' E 003°48'0 0.1
2016-Feb-10 13:32N 51°56' E 003°48'0 0.0
2016-Feb-10 12:32N 51°56' E 003°48'0 0.0
2016-Feb-10 10:26N 51°56' E 003°48'0 0.1
2016-Feb-10 09:26N 51°56' E 003°48'0 0.1
2016-Feb-10 08:29N 51°56' E 003°48'0 0.1
2016-Feb-10 07:32N 51°56' E 003°48'0 0.0
2016-Feb-10 06:32N 51°56' E 003°48'0 0.0
2016-Feb-10 05:32N 51°56' E 003°48'0 0.0
2016-Feb-10 04:32N 51°56' E 003°48'0 0.0
2016-Feb-10 03:32N 51°56' E 003°48'0 0.0
2016-Feb-10 02:33N 51°56' E 003°48'0 0.0
2016-Feb-10 01:33N 51°56' E 003°48'0 0.1
2016-Feb-10 00:34N 51°56' E 003°48'1 1.2
2016-Feb-09 23:34N 51°58' E 003°47'1212.1
2016-Feb-09 22:33N 52°10' E 003°47'1514.9
2016-Feb-09 21:33N 52°24' E 003°49'1615.7
2016-Feb-09 20:33N 52°40' E 003°55'1515.5
2016-Feb-09 19:33N 52°55' E 004°00'1413.8
2016-Feb-09 18:33N 53°05' E 004°15'3213.6
2016-Feb-09 16:11N 53°30' E 004°49'1015.2
2016-Feb-09 15:33N 53°34' E 005°04'1616.3
2016-Feb-09 14:33N 53°39' E 005°30'1616.0
2016-Feb-09 13:33N 53°44' E 005°56'1515.3
2016-Feb-09 12:33N 53°49' E 006°20'1414.5
2016-Feb-09 11:33N 53°53' E 006°44'1313.5
2016-Feb-09 10:34N 53°56' E 007°06'1212.2
2016-Feb-09 09:33N 53°59' E 007°26'1211.7
2016-Feb-09 08:33N 54°01' E 007°46'1212.3
2016-Feb-09 07:33N 54°00' E 008°07'1212.2
2016-Feb-09 06:33N 53°59' E 008°27'1616.0
2016-Feb-09 05:33N 53°50' E 008°51'1111.1
2016-Feb-09 04:33N 53°54' E 009°09'1 0.8
2016-Feb-09 03:33N 53°54' E 009°10'6 6.1
2016-Feb-09 02:33N 53°59' E 009°16'13 5.8
2016-Feb-09 00:22N 54°10' E 009°26'7 8.0
2016-Feb-08 23:30N 54°14' E 009°36'7 7.0
2016-Feb-08 22:33N 54°19' E 009°43'7 7.4
2016-Feb-08 21:33N 54°21' E 009°55'7 7.4
2016-Feb-08 20:33N 54°22' E 010°08'1 0.6
2016-Feb-08 19:33N 54°22' E 010°09'1010.2
2016-Feb-08 18:34N 54°30' E 010°19'1514.5
2016-Feb-08 17:33N 54°38' E 010°40'1414.1
2016-Feb-08 16:33N 54°50' E 010°52'1313.5
2016-Feb-08 15:34N 55°03' E 011°02'1313.0
2016-Feb-08 14:33N 55°16' E 011°04'4713.5
2016-Feb-08 11:03N 55°58' E 010°29'714.5
2016-Feb-08 10:33N 56°04' E 010°22'7 6.3
2016-Feb-08 09:32N 56°09' E 010°14'0 0.0
2016-Feb-08 08:31N 56°09' E 010°14'0 0.0
2016-Feb-08 07:33N 56°09' E 010°14'0 0.0
2016-Feb-08 06:32N 56°09' E 010°14'0 0.0
2016-Feb-08 05:32N 56°09' E 010°14'0 0.0
2016-Feb-08 04:31N 56°09' E 010°14'0 0.0
2016-Feb-08 03:32N 56°09' E 010°14'0 0.0
2016-Feb-08 02:31N 56°09' E 010°14'0 0.0
2016-Feb-08 01:31N 56°09' E 010°14'0 0.0
2016-Feb-08 00:31N 56°09' E 010°14'0 0.0
2016-Feb-07 23:31N 56°09' E 010°14'0 0.0
2016-Feb-07 22:31N 56°09' E 010°14'0 0.0
2016-Feb-07 21:34N 56°09' E 010°14'5 4.6
2016-Feb-07 20:33N 56°08' E 010°22'4212.8
2016-Feb-07 17:15N 56°29' E 011°28'1014.7
2016-Feb-07 16:33N 56°36' E 011°40'1313.3
2016-Feb-07 15:33N 56°49' E 011°49'1515.3
2016-Feb-07 14:34N 57°03' E 011°41'1514.8
2016-Feb-07 13:33N 57°18' E 011°38'1414.5
2016-Feb-07 12:33N 57°33' E 011°38'1111.0
2016-Feb-07 11:33N 57°41' E 011°51'0 0.1
2016-Feb-07 10:32N 57°41' E 011°51'0 0.0
2016-Feb-07 09:32N 57°41' E 011°51'0 0.0
2016-Feb-07 08:32N 57°41' E 011°51'0 0.0
2016-Feb-07 07:32N 57°41' E 011°51'0 0.0
2016-Feb-07 06:31N 57°41' E 011°51'0 0.0
2016-Feb-07 05:33N 57°41' E 011°51'0 0.0
2016-Feb-07 04:33N 57°41' E 011°51'0 0.0
2016-Feb-07 03:33N 57°41' E 011°51'0 0.0
2016-Feb-07 02:31N 57°41' E 011°51'0 0.0
2016-Feb-07 01:32N 57°41' E 011°51'0 0.0
2016-Feb-07 00:32N 57°41' E 011°51'0 0.0
2016-Feb-06 23:33N 57°41' E 011°51'0 0.0
2016-Feb-06 22:32N 57°41' E 011°51'0 0.0
2016-Feb-06 21:32N 57°41' E 011°51'0 0.0
2016-Feb-06 20:32N 57°41' E 011°51'0 0.0
2016-Feb-06 19:32N 57°41' E 011°51'0 0.0
2016-Feb-06 18:31N 57°41' E 011°51'3 3.4
2016-Feb-06 17:33N 57°40' E 011°46'1313.4
2016-Feb-06 16:33N 57°39' E 011°21'1616.2
2016-Feb-06 15:33N 57°45' E 010°53'1716.5
2016-Feb-06 14:33N 57°44' E 010°22'38716.6
2016-Feb-05 15:14N 54°56' W 000°08'1116.9
2016-Feb-05 14:33N 54°51' W 000°26'1717.0
2016-Feb-05 13:33N 54°44' W 000°52'1212.4
2016-Feb-05 12:33N 54°36' W 001°09'0 0.0
2016-Feb-05 11:33N 54°36' W 001°09'0 0.0
2016-Feb-05 10:10N 54°36' W 001°09'0 0.0
2016-Feb-05 08:30N 54°36' W 001°09'0 0.0
2016-Feb-05 06:29N 54°36' W 001°09'0 0.0
2016-Feb-05 05:29N 54°36' W 001°09'0 0.0
2016-Feb-05 04:29N 54°36' W 001°09'0 0.0
2016-Feb-05 03:32N 54°36' W 001°09'0 0.0
2016-Feb-05 02:26N 54°36' W 001°09'0 0.0
2016-Feb-05 01:29N 54°36' W 001°09'5 5.4
2016-Feb-05 00:33N 54°41' W 001°07'5 5.2
2016-Feb-04 23:33N 54°46' W 001°04'1 1.3
2016-Feb-04 22:33N 54°45' W 001°02'4 4.2
2016-Feb-04 21:33N 54°41' W 001°02'5 5.2
2016-Feb-04 20:31N 54°38' W 000°55'7 7.5
2016-Feb-04 19:32N 54°35' W 000°43'7 7.5
2016-Feb-04 18:33N 54°32' W 000°31'9 9.0
2016-Feb-04 17:34N 54°26' W 000°20'1616.0
2016-Feb-04 16:33N 54°14' W 000°02'1515.4
2016-Feb-04 15:33N 54°02' E 000°15'1514.5
2016-Feb-04 14:33N 53°51' E 000°32'1613.8
2016-Feb-04 13:21N 53°39' E 000°49'1113.2
2016-Feb-04 12:31N 53°29' E 000°60'1414.2
2016-Feb-04 11:34N 53°18' E 001°12'1615.5
2016-Feb-04 10:33N 53°05' E 001°25'1616.3
2016-Feb-04 09:33N 52°52' E 001°42'1615.5
2016-Feb-04 08:33N 52°38' E 001°55'1616.3
2016-Feb-04 07:33N 52°22' E 001°48'1615.8
2016-Feb-04 06:33N 52°07' E 001°42'1414.3
2016-Feb-04 05:33N 51°56' E 001°27'6 5.6
2016-Feb-04 04:33N 51°57' E 001°18'0 0.0
2016-Feb-04 03:33N 51°57' E 001°18'0 0.0
2016-Feb-04 02:32N 51°57' E 001°18'0 0.0
2016-Feb-04 01:32N 51°57' E 001°18'0 0.0
2016-Feb-04 00:32N 51°57' E 001°18'0 0.0
2016-Feb-03 23:32N 51°57' E 001°18'0 0.0
2016-Feb-03 22:32N 51°57' E 001°18'0 0.0
2016-Feb-03 21:33N 51°57' E 001°18'0 0.0
2016-Feb-03 20:33N 51°57' E 001°18'0 0.0
2016-Feb-03 19:33N 51°57' E 001°18'0 0.0
2016-Feb-03 18:32N 51°57' E 001°18'0 0.0
2016-Feb-03 17:33N 51°57' E 001°18'0 0.0
2016-Feb-03 16:33N 51°57' E 001°18'0 0.0
2016-Feb-03 15:33N 51°57' E 001°18'0 0.0
2016-Feb-03 14:33N 51°57' E 001°18'0 0.0
2016-Feb-03 13:33N 51°57' E 001°18'6 6.3
2016-Feb-03 12:33N 51°56' E 001°28'1312.8
2016-Feb-03 11:34N 51°50' E 001°47'1616.2
2016-Feb-03 10:33N 51°34' E 001°48'1717.0
2016-Feb-03 09:33N 51°18' E 001°40'1514.8
2016-Feb-03 08:33N 51°03' E 001°36'1716.8
2016-Feb-03 07:31N 50°48' E 001°22'70214.6
2016-Feb-01 07:33N 41°58' W 009°44'1515.4
2016-Feb-01 06:33N 41°43' W 009°45'1515.3
2016-Feb-01 05:33N 41°27' W 009°44'1514.7
2016-Feb-01 04:31N 41°12' W 009°44'1515.3
2016-Feb-01 03:30N 40°57' W 009°44'1515.4
2016-Feb-01 02:31N 40°41' W 009°44'1414.2
2016-Feb-01 01:33N 40°28' W 009°43'1514.9
2016-Feb-01 00:33N 40°13' W 009°42'1414.2
2016-Jan-31 23:33N 39°59' W 009°43'  

Dump ship's entire track history